
Distance (Route):
Temperature : -41.7°C
Humidity : 0%
Pressure : 0hPa| Receiver | Frames | First received | Last received |
|---|---|---|---|
| WB7NNF | 337 | 2026-09-05 05:42:59 | 2026-09-05 07:44:52 |
| Receiver | Date | Latitude | Longitude | Direction | Speed | Altitude | Climb | Temperature | Humidity | Pressure | Voltage | Killtimer | Uptime | BKT | XDATA |
|---|---|---|---|---|---|---|---|---|---|---|---|---|---|---|---|
| WB7NNF | 2026-09-05 07:44:52 | 48.37462 | -117.38903 | 23° | 91km/h | 9962m | -8.3m/s | -41.7°C | 0% | 0hPa | 0V | 00:00:00 | 00:00:00 | 00:00:00 | |
| WB7NNF | 2026-09-05 07:43:49 | 48.36309 | -117.39425 | 5° | 62km/h | 10439m | -7.2m/s | -41.8°C | 0% | 0hPa | 0V | 00:00:00 | 00:00:00 | 00:00:00 | |
| WB7NNF | 2026-09-05 07:43:08 | 48.35500 | -117.39447 | 2° | 99km/h | 10769m | -8.8m/s | -41.8°C | 0% | 0hPa | 0V | 00:00:00 | 00:00:00 | 00:00:00 | |
| WB7NNF | 2026-09-05 07:42:47 | 48.34981 | -117.39534 | 12° | 102km/h | 10941m | -8.6m/s | -40.7°C | 0% | 0hPa | 0V | 00:00:00 | 00:00:00 | 00:00:00 | |
| WB7NNF | 2026-09-05 07:42:27 | 48.34473 | -117.39725 | 14° | 95km/h | 11117m | -8.7m/s | -41.0°C | 0% | 0hPa | 0V | 00:00:00 | 00:00:00 | 00:00:00 | |
| WB7NNF | 2026-09-05 07:42:06 | 48.33995 | -117.39906 | 17° | 95km/h | 11287m | -8.6m/s | -41.3°C | 0% | 0hPa | 0V | 00:00:00 | 00:00:00 | 00:00:00 | |
| WB7NNF | 2026-09-05 07:41:46 | 48.33545 | -117.40136 | 21° | 84km/h | 11474m | -9.0m/s | -41.6°C | 0% | 0hPa | 0V | 00:00:00 | 00:00:00 | 00:00:00 | |
| WB7NNF | 2026-09-05 07:41:25 | 48.33150 | -117.40356 | 23° | 77km/h | 11664m | -9.3m/s | -42.0°C | 0% | 0hPa | 0V | 00:00:00 | 00:00:00 | 00:00:00 | |
| WB7NNF | 2026-09-05 07:41:04 | 48.32804 | -117.40584 | 25° | 75km/h | 11845m | -8.5m/s | -42.4°C | 0% | 0hPa | 0V | 00:00:00 | 00:00:00 | 00:00:00 | |
| WB7NNF | 2026-09-05 07:40:44 | 48.32409 | -117.40837 | 24° | 84km/h | 12009m | -7.9m/s | -42.9°C | 0% | 0hPa | 0V | 00:00:00 | 00:00:00 | 00:00:00 | |
| WB7NNF | 2026-09-05 07:40:23 | 48.32025 | -117.41079 | 24° | 78km/h | 12163m | -7.7m/s | -43.2°C | 0% | 0hPa | 0V | 00:00:00 | 00:00:00 | 00:00:00 | |
| WB7NNF | 2026-09-05 07:40:03 | 48.31675 | -117.41280 | 15° | 62km/h | 12330m | -10.0m/s | -44.0°C | 0% | 0hPa | 0V | 00:00:00 | 00:00:00 | 00:00:00 | |
| WB7NNF | 2026-09-05 07:39:42 | 48.31321 | -117.41423 | 18° | 77km/h | 12507m | -10.1m/s | -44.8°C | 0% | 0hPa | 0V | 00:00:00 | 00:00:00 | 00:00:00 | |
| WB7NNF | 2026-09-05 07:39:22 | 48.30926 | -117.41582 | 12° | 78km/h | 12715m | -8.5m/s | -45.5°C | 0% | 0hPa | 0V | 00:00:00 | 00:00:00 | 00:00:00 | |
| WB7NNF | 2026-09-05 07:38:41 | 48.30135 | -117.41927 | 22° | 80km/h | 13122m | -9.7m/s | -45.9°C | 0% | 0hPa | 0V | 00:00:00 | 00:00:00 | 00:00:00 | |
| WB7NNF | 2026-09-05 07:38:20 | 48.29792 | -117.42117 | 18° | 66km/h | 13323m | -11.9m/s | -46.0°C | 0% | 0hPa | 0V | 00:00:00 | 00:00:00 | 00:00:00 | |
| WB7NNF | 2026-09-05 07:38:00 | 48.29465 | -117.42249 | 12° | 66km/h | 13544m | -11.5m/s | -46.5°C | 0% | 0hPa | 0V | 00:00:00 | 00:00:00 | 00:00:00 | |
| WB7NNF | 2026-09-05 07:37:39 | 48.29132 | -117.42316 | 5° | 71km/h | 13757m | -10.8m/s | -47.7°C | 0% | 0hPa | 0V | 00:00:00 | 00:00:00 | 00:00:00 | |
| WB7NNF | 2026-09-05 07:37:19 | 48.28785 | -117.42377 | 9° | 62km/h | 13973m | -9.1m/s | -48.1°C | 0% | 0hPa | 0V | 00:00:00 | 00:00:00 | 00:00:00 | |
| WB7NNF | 2026-09-05 07:36:58 | 48.28510 | -117.42438 | 10° | 49km/h | 14159m | -9.6m/s | -48.1°C | 0% | 0hPa | 0V | 00:00:00 | 00:00:00 | 00:00:00 | |
| WB7NNF | 2026-09-05 07:36:38 | 48.28225 | -117.42551 | 19° | 62km/h | 14372m | -8.9m/s | -49.5°C | 0% | 0hPa | 0V | 00:00:00 | 00:00:00 | 00:00:00 | |
| WB7NNF | 2026-09-05 07:36:17 | 48.27886 | -117.42720 | 20° | 71km/h | 14590m | -9.3m/s | -50.8°C | 0% | 0hPa | 0V | 00:00:00 | 00:00:00 | 00:00:00 | |
| WB7NNF | 2026-09-05 07:35:56 | 48.27563 | -117.42895 | 16° | 64km/h | 14803m | -12.3m/s | -51.1°C | 0% | 0hPa | 0V | 00:00:00 | 00:00:00 | 00:00:00 | |
| WB7NNF | 2026-09-05 07:35:36 | 48.27268 | -117.42992 | 5° | 53km/h | 15058m | -11.3m/s | -51.2°C | 0% | 0hPa | 0V | 00:00:00 | 00:00:00 | 00:00:00 | |
| WB7NNF | 2026-09-05 07:35:15 | 48.26987 | -117.43066 | 10° | 55km/h | 15301m | -13.4m/s | -51.4°C | 0% | 0hPa | 0V | 00:00:00 | 00:00:00 | 00:00:00 | |
| WB7NNF | 2026-09-05 07:34:55 | 48.26688 | -117.43140 | 16° | 60km/h | 15548m | -11.5m/s | -51.8°C | 0% | 0hPa | 0V | 00:00:00 | 00:00:00 | 00:00:00 | |
| WB7NNF | 2026-09-05 07:34:34 | 48.26404 | -117.43286 | 12° | 49km/h | 15773m | -10.6m/s | -51.0°C | 0% | 0hPa | 0V | 00:00:00 | 00:00:00 | 00:00:00 | |
| WB7NNF | 2026-09-05 07:34:14 | 48.26171 | -117.43306 | 6° | 31km/h | 16015m | -10.2m/s | -48.1°C | 0% | 0hPa | 0V | 00:00:00 | 00:00:00 | 00:00:00 | |
| WB7NNF | 2026-09-05 07:33:53 | 48.26045 | -117.43298 | 341° | 18km/h | 16225m | -13.1m/s | -48.8°C | 0% | 0hPa | 0V | 00:00:00 | 00:00:00 | 00:00:00 | |
| WB7NNF | 2026-09-05 07:33:33 | 48.25958 | -117.43307 | 359° | 16km/h | 16472m | -12.4m/s | -49.9°C | 0% | 0hPa | 0V | 00:00:00 | 00:00:00 | 00:00:00 | |
| WB7NNF | 2026-09-05 07:33:12 | 48.25803 | -117.43271 | 349° | 37km/h | 16731m | -11.7m/s | -51.4°C | 0% | 0hPa | 0V | 00:00:00 | 00:00:00 | 00:00:00 | |
| WB7NNF | 2026-09-05 07:32:52 | 48.25577 | -117.43132 | 344° | 60km/h | 16993m | -14.7m/s | -52.5°C | 0% | 0hPa | 0V | 00:00:00 | 00:00:00 | 00:00:00 | |
| WB7NNF | 2026-09-05 07:32:31 | 48.25323 | -117.43092 | 11° | 47km/h | 17262m | -12.0m/s | -52.9°C | 0% | 0hPa | 0V | 00:00:00 | 00:00:00 | 00:00:00 | |
| WB7NNF | 2026-09-05 07:32:11 | 48.25121 | -117.43204 | 29° | 38km/h | 17520m | -14.3m/s | -53.3°C | 0% | 0hPa | 0V | 00:00:00 | 00:00:00 | 00:00:00 | |
| WB7NNF | 2026-09-05 07:31:50 | 48.24895 | -117.43266 | 3° | 58km/h | 17800m | -15.5m/s | -53.3°C | 0% | 0hPa | 0V | 00:00:00 | 00:00:00 | 00:00:00 | |
| WB7NNF | 2026-09-05 07:31:30 | 48.24617 | -117.43349 | 28° | 37km/h | 18113m | -12.2m/s | -52.7°C | 0% | 0hPa | 0V | 00:00:00 | 00:00:00 | 00:00:00 | |
| WB7NNF | 2026-09-05 07:31:09 | 48.24475 | -117.43402 | 21° | 20km/h | 18414m | -16.2m/s | -52.9°C | 0% | 0hPa | 0V | 00:00:00 | 00:00:00 | 00:00:00 | |
| WB7NNF | 2026-09-05 07:30:48 | 48.24381 | -117.43427 | 341° | 9km/h | 18706m | -15.5m/s | -53.6°C | 0% | 0hPa | 0V | 00:00:00 | 00:00:00 | 00:00:00 | |
| WB7NNF | 2026-09-05 07:30:28 | 48.24343 | -117.43423 | 347° | 11km/h | 18997m | -13.7m/s | -53.0°C | 0% | 0hPa | 0V | 00:00:00 | 00:00:00 | 00:00:00 | |
| WB7NNF | 2026-09-05 07:30:07 | 48.24286 | -117.43417 | 258° | 7km/h | 19290m | -15.3m/s | -54.1°C | 0% | 0hPa | 0V | 00:00:00 | 00:00:00 | 00:00:00 | |
| WB7NNF | 2026-09-05 07:29:47 | 48.24253 | -117.43370 | 325° | 16km/h | 19611m | -12.6m/s | -54.3°C | 0% | 0hPa | 0V | 00:00:00 | 00:00:00 | 00:00:00 | |
| WB7NNF | 2026-09-05 07:29:26 | 48.24187 | -117.43230 | 298° | 40km/h | 19913m | -17.2m/s | -54.1°C | 0% | 0hPa | 0V | 00:00:00 | 00:00:00 | 00:00:00 | |
| WB7NNF | 2026-09-05 07:29:06 | 48.24066 | -117.43030 | 331° | 31km/h | 20225m | -16.0m/s | -55.1°C | 0% | 0hPa | 0V | 00:00:00 | 00:00:00 | 00:00:00 | |
| WB7NNF | 2026-09-05 07:28:45 | 48.23952 | -117.42975 | 339° | 29km/h | 20550m | -17.3m/s | -53.3°C | 0% | 0hPa | 0V | 00:00:00 | 00:00:00 | 00:00:00 | |
| WB7NNF | 2026-09-05 07:28:25 | 48.23883 | -117.42962 | 67° | 2km/h | 20925m | -18.8m/s | -53.6°C | 0% | 0hPa | 0V | 00:00:00 | 00:00:00 | 00:00:00 | |
| WB7NNF | 2026-09-05 07:28:04 | 48.23889 | -117.43000 | 172° | 7km/h | 21283m | -18.1m/s | -55.9°C | 0% | 0hPa | 0V | 00:00:00 | 00:00:00 | 00:00:00 | |
| WB7NNF | 2026-09-05 07:27:44 | 48.23934 | -117.42841 | 278° | 33km/h | 21646m | -17.1m/s | -55.3°C | 0% | 0hPa | 0V | 00:00:00 | 00:00:00 | 00:00:00 | |
| WB7NNF | 2026-09-05 07:27:23 | 48.23837 | -117.42633 | 330° | 37km/h | 22010m | -20.4m/s | -54.9°C | 0% | 0hPa | 0V | 00:00:00 | 00:00:00 | 00:00:00 | |
| WB7NNF | 2026-09-05 07:27:03 | 48.23675 | -117.42618 | 29° | 15km/h | 22407m | -18.1m/s | -54.8°C | 0% | 0hPa | 0V | 00:00:00 | 00:00:00 | 00:00:00 | |
| WB7NNF | 2026-09-05 07:26:42 | 48.23673 | -117.42616 | 235° | 4km/h | 22795m | -18.7m/s | -53.3°C | 0% | 0hPa | 0V | 00:00:00 | 00:00:00 | 00:00:00 | |
| WB7NNF | 2026-09-05 07:26:22 | 48.23725 | -117.42601 | 225° | 18km/h | 23203m | -20.4m/s | -53.6°C | 0% | 0hPa | 0V | 00:00:00 | 00:00:00 | 00:00:00 | |
| WB7NNF | 2026-09-05 07:26:01 | 48.23729 | -117.42480 | 306° | 26km/h | 23621m | -21.8m/s | -55.0°C | 0% | 0hPa | 0V | 00:00:00 | 00:00:00 | 00:00:00 | |
| WB7NNF | 2026-09-05 07:25:40 | 48.23682 | -117.42424 | 68° | 7km/h | 24034m | -22.4m/s | -53.9°C | 0% | 0hPa | 0V | 00:00:00 | 00:00:00 | 00:00:00 | |
| WB7NNF | 2026-09-05 07:25:20 | 48.23668 | -117.42377 | 272° | 9km/h | 24498m | -25.3m/s | -53.3°C | 0% | 0hPa | 0V | 00:00:00 | 00:00:00 | 00:00:00 | |
| WB7NNF | 2026-09-05 07:24:59 | 48.23691 | -117.42300 | 211° | 16km/h | 24922m | -24.0m/s | -51.5°C | 0% | 0hPa | 0V | 00:00:00 | 00:00:00 | 00:00:00 | |
| WB7NNF | 2026-09-05 07:24:39 | 48.23668 | -117.42231 | 329° | 13km/h | 25401m | -24.3m/s | -50.3°C | 0% | 0hPa | 0V | 00:00:00 | 00:00:00 | 00:00:00 | |
| WB7NNF | 2026-09-05 07:24:18 | 48.23661 | -117.42197 | 192° | 24km/h | 25886m | -25.6m/s | -49.9°C | 0% | 0hPa | 0V | 00:00:00 | 00:00:00 | 00:00:00 | |
| WB7NNF | 2026-09-05 07:23:37 | 48.23776 | -117.42063 | 62° | 11km/h | 26994m | -26.9m/s | -50.3°C | 0% | 0hPa | 0V | 00:00:00 | 00:00:00 | 00:00:00 | |
| WB7NNF | 2026-09-05 07:23:17 | 48.23863 | -117.42108 | 192° | 15km/h | 27563m | -28.9m/s | -49.7°C | 0% | 0hPa | 0V | 00:00:00 | 00:00:00 | 00:00:00 | |
| WB7NNF | 2026-09-05 07:22:56 | 48.23909 | -117.42046 | 257° | 15km/h | 28117m | -26.4m/s | -50.3°C | 0% | 0hPa | 0V | 00:00:00 | 00:00:00 | 00:00:00 | |
| WB7NNF | 2026-09-05 07:22:36 | 48.23945 | -117.42011 | 17° | 4km/h | 28743m | -30.6m/s | -48.3°C | 0% | 0hPa | 0V | 00:00:00 | 00:00:00 | 00:00:00 | |
| WB7NNF | 2026-09-05 07:22:15 | 48.23976 | -117.42030 | 206° | 24km/h | 29378m | -34.0m/s | -46.2°C | 0% | 0hPa | 0V | 00:00:00 | 00:00:00 | 00:00:00 | |
| WB7NNF | 2026-09-05 07:21:55 | 48.24052 | -117.42010 | 139° | 4km/h | 30037m | -31.3m/s | -45.1°C | 0% | 0hPa | 0V | 00:00:00 | 00:00:00 | 00:00:00 | |
| WB7NNF | 2026-09-05 07:21:34 | 48.24073 | -117.42011 | 128° | 13km/h | 30686m | -34.4m/s | -43.2°C | 0% | 0hPa | 0V | 00:00:00 | 00:00:00 | 00:00:00 | |
| WB7NNF | 2026-09-05 07:21:14 | 48.24103 | -117.41998 | 352° | 4km/h | 31312m | -30.4m/s | -43.0°C | 0% | 0hPa | 0V | 00:00:00 | 00:00:00 | 00:00:00 | |
| WB7NNF | 2026-09-05 07:20:53 | 48.24101 | -117.42025 | 191° | 13km/h | 31973m | -36.9m/s | -42.5°C | 0% | 0hPa | 0V | 00:00:00 | 00:00:00 | 00:00:00 | |
| WB7NNF | 2026-09-05 07:20:32 | 48.24121 | -117.42034 | 288° | 20km/h | 32695m | -41.5m/s | -41.5°C | 0% | 0hPa | 0V | 00:00:00 | 00:00:00 | 00:00:00 | |
| WB7NNF | 2026-09-05 07:20:12 | 48.24099 | -117.41994 | 144° | 24km/h | 33413m | -26.5m/s | -40.2°C | 0% | 0hPa | 0V | 00:00:00 | 00:00:00 | 00:00:00 | |
| WB7NNF | 2026-09-05 07:19:51 | 48.24101 | -117.42023 | 204° | 49km/h | 33913m | -3.9m/s | -37.7°C | 0% | 0hPa | 0V | 00:00:00 | 00:00:00 | 00:00:00 | |
| WB7NNF | 2026-09-05 07:19:10 | 48.24086 | -117.42166 | 104° | 38km/h | 33681m | 8.1m/s | -39.5°C | 0% | 0hPa | 0V | 00:00:00 | 00:00:00 | 00:00:00 | |
| WB7NNF | 2026-09-05 07:18:50 | 48.24078 | -117.42121 | 324° | 47km/h | 33561m | 8.5m/s | -40.6°C | 0% | 0hPa | 0V | 00:00:00 | 00:00:00 | 00:00:00 | |
| WB7NNF | 2026-09-05 07:18:29 | 48.24064 | -117.42089 | 173° | 46km/h | 33437m | 5.0m/s | -41.3°C | 0% | 0hPa | 0V | 00:00:00 | 00:00:00 | 00:00:00 | |
| WB7NNF | 2026-09-05 07:18:07 | 48.24043 | -117.42067 | 13° | 40km/h | 33317m | 3.0m/s | -41.4°C | 0% | 0hPa | 0V | 00:00:00 | 00:00:00 | 00:00:00 | |
| WB7NNF | 2026-09-05 07:17:44 | 48.24026 | -117.42106 | 293° | 49km/h | 33184m | 6.2m/s | -42.0°C | 0% | 0hPa | 0V | 00:00:00 | 00:00:00 | 00:00:00 | |
| WB7NNF | 2026-09-05 07:17:03 | 48.24033 | -117.41793 | 304° | 68km/h | 32927m | 1.8m/s | -42.6°C | 0% | 0hPa | 0V | 00:00:00 | 00:00:00 | 00:00:00 | |
| WB7NNF | 2026-09-05 07:16:43 | 48.24054 | -117.41661 | 217° | 46km/h | 32791m | 4.2m/s | -42.3°C | 0% | 0hPa | 0V | 00:00:00 | 00:00:00 | 00:00:00 | |
| WB7NNF | 2026-09-05 07:16:21 | 48.24068 | -117.41500 | 308° | 46km/h | 32654m | 0.5m/s | -41.7°C | 0% | 0hPa | 0V | 00:00:00 | 00:00:00 | 00:00:00 | |
| WB7NNF | 2026-09-05 07:16:01 | 48.24058 | -117.41469 | 199° | 47km/h | 32510m | 2.8m/s | -42.7°C | 0% | 0hPa | 0V | 00:00:00 | 00:00:00 | 00:00:00 | |
| WB7NNF | 2026-09-05 07:15:38 | 48.24022 | -117.41435 | 29° | 53km/h | 32375m | 0.2m/s | -43.2°C | 0% | 0hPa | 0V | 00:00:00 | 00:00:00 | 00:00:00 | |
| WB7NNF | 2026-09-05 07:15:15 | 48.24046 | -117.41408 | 352° | 35km/h | 32235m | 10.1m/s | -43.6°C | 0% | 0hPa | 0V | 00:00:00 | 00:00:00 | 00:00:00 | |
| WB7NNF | 2026-09-05 07:14:55 | 48.24118 | -117.41438 | 212° | 57km/h | 32102m | 9.2m/s | -43.4°C | 0% | 0hPa | 0V | 00:00:00 | 00:00:00 | 00:00:00 | |
| WB7NNF | 2026-09-05 07:14:34 | 48.24175 | -117.41438 | 68° | 13km/h | 31983m | 6.5m/s | -43.2°C | 0% | 0hPa | 0V | 00:00:00 | 00:00:00 | 00:00:00 | |
| WB7NNF | 2026-09-05 07:14:14 | 48.24197 | -117.41549 | 200° | 18km/h | 31856m | 3.9m/s | -43.5°C | 0% | 0hPa | 0V | 00:00:00 | 00:00:00 | 00:00:00 | |
| WB7NNF | 2026-09-05 07:13:53 | 48.24157 | -117.41549 | 343° | 51km/h | 31731m | 2.7m/s | -43.5°C | 0% | 0hPa | 0V | 00:00:00 | 00:00:00 | 00:00:00 | |
| WB7NNF | 2026-09-05 07:13:33 | 48.24112 | -117.41513 | 180° | 31km/h | 31602m | 6.5m/s | -43.5°C | 0% | 0hPa | 0V | 00:00:00 | 00:00:00 | 00:00:00 | |
| WB7NNF | 2026-09-05 07:13:12 | 48.24077 | -117.41440 | 337° | 42km/h | 31475m | 6.8m/s | -43.6°C | 0% | 0hPa | 0V | 00:00:00 | 00:00:00 | 00:00:00 | |
| WB7NNF | 2026-09-05 07:12:51 | 48.24069 | -117.41367 | 209° | 11km/h | 31354m | 9.8m/s | -43.8°C | 0% | 0hPa | 0V | 00:00:00 | 00:00:00 | 00:00:00 | |
| WB7NNF | 2026-09-05 07:12:31 | 48.24075 | -117.41315 | 292° | 7km/h | 31225m | 9.2m/s | -43.8°C | 0% | 0hPa | 0V | 00:00:00 | 00:00:00 | 00:00:00 | |
| WB7NNF | 2026-09-05 07:12:10 | 48.24076 | -117.41258 | 315° | 29km/h | 31089m | 4.0m/s | -43.8°C | 0% | 0hPa | 0V | 00:00:00 | 00:00:00 | 00:00:00 | |
| WB7NNF | 2026-09-05 07:11:48 | 48.24100 | -117.41217 | 341° | 24km/h | 30941m | 10.4m/s | -43.2°C | 0% | 0hPa | 0V | 00:00:00 | 00:00:00 | 00:00:00 | |
| WB7NNF | 2026-09-05 07:11:27 | 48.24103 | -117.41160 | 127° | 4km/h | 30815m | 8.6m/s | -43.3°C | 0% | 0hPa | 0V | 00:00:00 | 00:00:00 | 00:00:00 | |
| WB7NNF | 2026-09-05 07:11:07 | 48.24134 | -117.41173 | 295° | 15km/h | 30680m | 10.0m/s | -43.4°C | 0% | 0hPa | 0V | 00:00:00 | 00:00:00 | 00:00:00 | |
| WB7NNF | 2026-09-05 07:10:46 | 48.24081 | -117.41208 | 23° | 26km/h | 30554m | 4.1m/s | -44.0°C | 0% | 0hPa | 0V | 00:00:00 | 00:00:00 | 00:00:00 | |
| WB7NNF | 2026-09-05 07:10:26 | 48.24089 | -117.41205 | 252° | 15km/h | 30423m | 6.1m/s | -44.9°C | 0% | 0hPa | 0V | 00:00:00 | 00:00:00 | 00:00:00 | |
| WB7NNF | 2026-09-05 07:10:04 | 48.24087 | -117.41152 | 271° | 22km/h | 30296m | 6.1m/s | -45.0°C | 0% | 0hPa | 0V | 00:00:00 | 00:00:00 | 00:00:00 | |
| WB7NNF | 2026-09-05 07:09:43 | 48.24118 | -117.41139 | 7° | 29km/h | 30165m | 8.0m/s | -45.8°C | 0% | 0hPa | 0V | 00:00:00 | 00:00:00 | 00:00:00 | |
| WB7NNF | 2026-09-05 07:09:22 | 48.24142 | -117.41130 | 190° | 24km/h | 30047m | 9.0m/s | -46.1°C | 0% | 0hPa | 0V | 00:00:00 | 00:00:00 | 00:00:00 | |
| WB7NNF | 2026-09-05 07:09:02 | 48.24205 | -117.41126 | 310° | 11km/h | 29923m | 6.5m/s | -46.6°C | 0% | 0hPa | 0V | 00:00:00 | 00:00:00 | 00:00:00 | |
| WB7NNF | 2026-09-05 07:08:41 | 48.24265 | -117.41070 | 179° | 37km/h | 29804m | 8.7m/s | -46.9°C | 0% | 0hPa | 0V | 00:00:00 | 00:00:00 | 00:00:00 | |
| WB7NNF | 2026-09-05 07:08:21 | 48.24361 | -117.41001 | 332° | 24km/h | 29679m | 2.9m/s | -47.0°C | 0% | 0hPa | 0V | 00:00:00 | 00:00:00 | 00:00:00 | |
| WB7NNF | 2026-09-05 07:07:40 | 48.24547 | -117.40897 | 229° | 35km/h | 29432m | 4.9m/s | -47.0°C | 0% | 0hPa | 0V | 00:00:00 | 00:00:00 | 00:00:00 | |
| WB7NNF | 2026-09-05 07:07:19 | 48.24645 | -117.40929 | 172° | 27km/h | 29309m | 5.4m/s | -47.6°C | 0% | 0hPa | 0V | 00:00:00 | 00:00:00 | 00:00:00 | |
| WB7NNF | 2026-09-05 07:06:59 | 48.24706 | -117.41006 | 132° | 46km/h | 29171m | 7.3m/s | -47.7°C | 0% | 0hPa | 0V | 00:00:00 | 00:00:00 | 00:00:00 | |
| WB7NNF | 2026-09-05 07:06:39 | 48.24767 | -117.41054 | 322° | 20km/h | 29057m | 7.1m/s | -47.8°C | 0% | 0hPa | 0V | 00:00:00 | 00:00:00 | 00:00:00 | |
| WB7NNF | 2026-09-05 07:06:18 | 48.24804 | -117.41098 | 185° | 18km/h | 28933m | 4.8m/s | -47.6°C | 0% | 0hPa | 0V | 00:00:00 | 00:00:00 | 00:00:00 | |
| WB7NNF | 2026-09-05 07:05:57 | 48.24788 | -117.41148 | 13° | 24km/h | 28815m | 5.6m/s | -48.2°C | 0% | 0hPa | 0V | 00:00:00 | 00:00:00 | 00:00:00 | |
| WB7NNF | 2026-09-05 07:05:37 | 48.24780 | -117.41221 | 248° | 27km/h | 28695m | 7.9m/s | -48.6°C | 0% | 0hPa | 0V | 00:00:00 | 00:00:00 | 00:00:00 | |
| WB7NNF | 2026-09-05 07:05:16 | 48.24799 | -117.41211 | 154° | 11km/h | 28584m | 8.1m/s | -48.9°C | 0% | 0hPa | 0V | 00:00:00 | 00:00:00 | 00:00:00 | |
| WB7NNF | 2026-09-05 07:04:55 | 48.24873 | -117.41186 | 260° | 20km/h | 28462m | 5.3m/s | -49.4°C | 0% | 0hPa | 0V | 00:00:00 | 00:00:00 | 00:00:00 | |
| WB7NNF | 2026-09-05 07:04:35 | 48.24993 | -117.41111 | 206° | 22km/h | 28342m | 8.0m/s | -49.9°C | 0% | 0hPa | 0V | 00:00:00 | 00:00:00 | 00:00:00 | |
| WB7NNF | 2026-09-05 07:04:14 | 48.25060 | -117.41034 | 251° | 33km/h | 28227m | 4.6m/s | -50.0°C | 0% | 0hPa | 0V | 00:00:00 | 00:00:00 | 00:00:00 | |
| WB7NNF | 2026-09-05 07:03:54 | 48.25129 | -117.40982 | 273° | 11km/h | 28103m | 9.2m/s | -50.0°C | 0% | 0hPa | 0V | 00:00:00 | 00:00:00 | 00:00:00 | |
| WB7NNF | 2026-09-05 07:03:33 | 48.25175 | -117.40901 | 189° | 31km/h | 27981m | 5.2m/s | -49.6°C | 0% | 0hPa | 0V | 00:00:00 | 00:00:00 | 00:00:00 | |
| WB7NNF | 2026-09-05 07:03:13 | 48.25229 | -117.40806 | 270° | 26km/h | 27855m | 6.4m/s | -49.5°C | 0% | 0hPa | 0V | 00:00:00 | 00:00:00 | 00:00:00 | |
| WB7NNF | 2026-09-05 07:02:52 | 48.25287 | -117.40755 | 130° | 15km/h | 27735m | 6.5m/s | -49.4°C | 0% | 0hPa | 0V | 00:00:00 | 00:00:00 | 00:00:00 | |
| WB7NNF | 2026-09-05 07:02:32 | 48.25346 | -117.40780 | 171° | 38km/h | 27608m | 6.1m/s | -49.5°C | 0% | 0hPa | 0V | 00:00:00 | 00:00:00 | 00:00:00 | |
| WB7NNF | 2026-09-05 07:02:11 | 48.25458 | -117.40782 | 124° | 5km/h | 27489m | 2.3m/s | -49.3°C | 0% | 0hPa | 0V | 00:00:00 | 00:00:00 | 00:00:00 | |
| WB7NNF | 2026-09-05 07:01:51 | 48.25635 | -117.40825 | 163° | 27km/h | 27368m | 7.6m/s | -48.9°C | 0% | 0hPa | 0V | 00:00:00 | 00:00:00 | 00:00:00 | |
| WB7NNF | 2026-09-05 07:01:08 | 48.25788 | -117.40994 | 141° | 29km/h | 27121m | 4.5m/s | -49.2°C | 0% | 0hPa | 0V | 00:00:00 | 00:00:00 | 00:00:00 | |
| WB7NNF | 2026-09-05 07:00:47 | 48.25780 | -117.41058 | 33° | 29km/h | 27012m | 1.4m/s | -50.5°C | 0% | 0hPa | 0V | 00:00:00 | 00:00:00 | 00:00:00 | |
| WB7NNF | 2026-09-05 07:00:27 | 48.25749 | -117.41083 | 360° | 26km/h | 26893m | 6.6m/s | -51.2°C | 0% | 0hPa | 0V | 00:00:00 | 00:00:00 | 00:00:00 | |
| WB7NNF | 2026-09-05 07:00:06 | 48.25722 | -117.41058 | 7° | 4km/h | 26774m | 7.3m/s | -51.0°C | 0% | 0hPa | 0V | 00:00:00 | 00:00:00 | 00:00:00 | |
| WB7NNF | 2026-09-05 06:59:46 | 48.25731 | -117.40982 | 251° | 22km/h | 26655m | 7.6m/s | -51.5°C | 0% | 0hPa | 0V | 00:00:00 | 00:00:00 | 00:00:00 | |
| WB7NNF | 2026-09-05 06:59:25 | 48.25754 | -117.40856 | 230° | 55km/h | 26540m | 1.8m/s | -50.9°C | 0% | 0hPa | 0V | 00:00:00 | 00:00:00 | 00:00:00 | |
| WB7NNF | 2026-09-05 06:59:05 | 48.25794 | -117.40756 | 195° | 7km/h | 26424m | 5.0m/s | -50.3°C | 0% | 0hPa | 0V | 00:00:00 | 00:00:00 | 00:00:00 | |
| WB7NNF | 2026-09-05 06:58:44 | 48.25919 | -117.40726 | 174° | 42km/h | 26304m | 6.2m/s | -50.2°C | 0% | 0hPa | 0V | 00:00:00 | 00:00:00 | 00:00:00 | |
| WB7NNF | 2026-09-05 06:58:24 | 48.26065 | -117.40699 | 184° | 35km/h | 26179m | 4.8m/s | -51.1°C | 0% | 0hPa | 0V | 00:00:00 | 00:00:00 | 00:00:00 | |
| WB7NNF | 2026-09-05 06:58:03 | 48.26205 | -117.40676 | 191° | 40km/h | 26054m | 4.9m/s | -50.6°C | 0% | 0hPa | 0V | 00:00:00 | 00:00:00 | 00:00:00 | |
| WB7NNF | 2026-09-05 06:57:42 | 48.26298 | -117.40675 | 0° | 0km/h | 25940m | 5.0m/s | -50.3°C | 0% | 0hPa | 0V | 00:00:00 | 00:00:00 | 00:00:00 | |
| WB7NNF | 2026-09-05 06:57:22 | 48.26338 | -117.40688 | 55° | 7km/h | 25819m | 6.8m/s | -50.3°C | 0% | 0hPa | 0V | 00:00:00 | 00:00:00 | 00:00:00 | |
| WB7NNF | 2026-09-05 06:57:00 | 48.26295 | -117.40652 | 5° | 27km/h | 25695m | 4.7m/s | -51.0°C | 0% | 0hPa | 0V | 00:00:00 | 00:00:00 | 00:00:00 | |
| WB7NNF | 2026-09-05 06:56:40 | 48.26250 | -117.40591 | 319° | 16km/h | 25572m | 4.5m/s | -51.3°C | 0% | 0hPa | 0V | 00:00:00 | 00:00:00 | 00:00:00 | |
| WB7NNF | 2026-09-05 06:56:17 | 48.26168 | -117.40545 | 340° | 11km/h | 25458m | 5.3m/s | -51.5°C | 0% | 0hPa | 0V | 00:00:00 | 00:00:00 | 00:00:00 | |
| WB7NNF | 2026-09-05 06:55:57 | 48.26137 | -117.40479 | 18° | 9km/h | 25344m | 6.7m/s | -52.1°C | 0% | 0hPa | 0V | 00:00:00 | 00:00:00 | 00:00:00 | |
| WB7NNF | 2026-09-05 06:55:36 | 48.26106 | -117.40379 | 274° | 22km/h | 25232m | 5.2m/s | -52.2°C | 0% | 0hPa | 0V | 00:00:00 | 00:00:00 | 00:00:00 | |
| WB7NNF | 2026-09-05 06:55:15 | 48.26120 | -117.40301 | 229° | 37km/h | 25117m | 2.8m/s | -52.3°C | 0% | 0hPa | 0V | 00:00:00 | 00:00:00 | 00:00:00 | |
| WB7NNF | 2026-09-05 06:54:54 | 48.26163 | -117.40249 | 208° | 22km/h | 25009m | 2.9m/s | -52.8°C | 0% | 0hPa | 0V | 00:00:00 | 00:00:00 | 00:00:00 | |
| WB7NNF | 2026-09-05 06:54:34 | 48.26192 | -117.40155 | 270° | 26km/h | 24896m | 3.8m/s | -52.8°C | 0% | 0hPa | 0V | 00:00:00 | 00:00:00 | 00:00:00 | |
| WB7NNF | 2026-09-05 06:54:12 | 48.26234 | -117.40029 | 213° | 29km/h | 24783m | 4.5m/s | -52.3°C | 0% | 0hPa | 0V | 00:00:00 | 00:00:00 | 00:00:00 | |
| WB7NNF | 2026-09-05 06:53:51 | 48.26260 | -117.39973 | 267° | 13km/h | 24676m | 4.8m/s | -53.1°C | 0% | 0hPa | 0V | 00:00:00 | 00:00:00 | 00:00:00 | |
| WB7NNF | 2026-09-05 06:53:30 | 48.26262 | -117.39895 | 268° | 42km/h | 24571m | 6.9m/s | -53.9°C | 0% | 0hPa | 0V | 00:00:00 | 00:00:00 | 00:00:00 | |
| WB7NNF | 2026-09-05 06:53:10 | 48.26290 | -117.39821 | 224° | 29km/h | 24460m | 5.5m/s | -53.5°C | 0% | 0hPa | 0V | 00:00:00 | 00:00:00 | 00:00:00 | |
| WB7NNF | 2026-09-05 06:52:49 | 48.26291 | -117.39783 | 348° | 13km/h | 24361m | 4.5m/s | -53.5°C | 0% | 0hPa | 0V | 00:00:00 | 00:00:00 | 00:00:00 | |
| WB7NNF | 2026-09-05 06:52:29 | 48.26307 | -117.39721 | 300° | 7km/h | 24250m | 6.2m/s | -52.9°C | 0% | 0hPa | 0V | 00:00:00 | 00:00:00 | 00:00:00 | |
| WB7NNF | 2026-09-05 06:52:08 | 48.26321 | -117.39632 | 3° | 5km/h | 24142m | 7.0m/s | -52.7°C | 0% | 0hPa | 0V | 00:00:00 | 00:00:00 | 00:00:00 | |
| WB7NNF | 2026-09-05 06:51:48 | 48.26327 | -117.39596 | 328° | 4km/h | 24030m | 6.7m/s | -53.4°C | 0% | 0hPa | 0V | 00:00:00 | 00:00:00 | 00:00:00 | |
| WB7NNF | 2026-09-05 06:51:27 | 48.26320 | -117.39599 | 324° | 4km/h | 23917m | 5.4m/s | -53.6°C | 0% | 0hPa | 0V | 00:00:00 | 00:00:00 | 00:00:00 | |
| WB7NNF | 2026-09-05 06:51:05 | 48.26292 | -117.39562 | 351° | 13km/h | 23800m | 5.7m/s | -54.5°C | 0% | 0hPa | 0V | 00:00:00 | 00:00:00 | 00:00:00 | |
| WB7NNF | 2026-09-05 06:50:45 | 48.26253 | -117.39490 | 18° | 18km/h | 23688m | 4.8m/s | -54.1°C | 0% | 0hPa | 0V | 00:00:00 | 00:00:00 | 00:00:00 | |
| WB7NNF | 2026-09-05 06:50:24 | 48.26185 | -117.39377 | 299° | 33km/h | 23578m | 8.2m/s | -54.4°C | 0% | 0hPa | 0V | 00:00:00 | 00:00:00 | 00:00:00 | |
| WB7NNF | 2026-09-05 06:50:03 | 48.26125 | -117.39203 | 268° | 16km/h | 23473m | 5.5m/s | -54.5°C | 0% | 0hPa | 0V | 00:00:00 | 00:00:00 | 00:00:00 | |
| WB7NNF | 2026-09-05 06:49:43 | 48.26115 | -117.39096 | 268° | 18km/h | 23364m | 3.2m/s | -54.2°C | 0% | 0hPa | 0V | 00:00:00 | 00:00:00 | 00:00:00 | |
| WB7NNF | 2026-09-05 06:49:22 | 48.26140 | -117.39067 | 121° | 11km/h | 23255m | 5.6m/s | -53.6°C | 0% | 0hPa | 0V | 00:00:00 | 00:00:00 | 00:00:00 | |
| WB7NNF | 2026-09-05 06:48:41 | 48.26254 | -117.39100 | 6° | 4km/h | 23047m | 7.6m/s | -53.0°C | 0% | 0hPa | 0V | 00:00:00 | 00:00:00 | 00:00:00 | |
| WB7NNF | 2026-09-05 06:48:21 | 48.26260 | -117.39142 | 39° | 11km/h | 22935m | 5.3m/s | -53.6°C | 0% | 0hPa | 0V | 00:00:00 | 00:00:00 | 00:00:00 | |
| WB7NNF | 2026-09-05 06:48:00 | 48.26239 | -117.39156 | 335° | 2km/h | 22829m | 6.3m/s | -53.8°C | 0% | 0hPa | 0V | 00:00:00 | 00:00:00 | 00:00:00 | |
| WB7NNF | 2026-09-05 06:47:40 | 48.26236 | -117.39103 | 338° | 9km/h | 22714m | 5.3m/s | -54.4°C | 0% | 0hPa | 0V | 00:00:00 | 00:00:00 | 00:00:00 | |
| WB7NNF | 2026-09-05 06:47:19 | 48.26218 | -117.39142 | 0° | 0km/h | 22598m | 5.2m/s | -55.1°C | 0% | 0hPa | 0V | 00:00:00 | 00:00:00 | 00:00:00 | |
| WB7NNF | 2026-09-05 06:46:58 | 48.26128 | -117.39186 | 3° | 22km/h | 22493m | 5.8m/s | -55.9°C | 0% | 0hPa | 0V | 00:00:00 | 00:00:00 | 00:00:00 | |
| WB7NNF | 2026-09-05 06:46:38 | 48.25981 | -117.39235 | 29° | 33km/h | 22384m | 5.5m/s | -56.2°C | 0% | 0hPa | 0V | 00:00:00 | 00:00:00 | 00:00:00 | |
| WB7NNF | 2026-09-05 06:46:17 | 48.25787 | -117.39190 | 357° | 33km/h | 22280m | 6.2m/s | -55.9°C | 0% | 0hPa | 0V | 00:00:00 | 00:00:00 | 00:00:00 | |
| WB7NNF | 2026-09-05 06:45:57 | 48.25612 | -117.39048 | 343° | 31km/h | 22173m | 3.7m/s | -55.7°C | 0% | 0hPa | 0V | 00:00:00 | 00:00:00 | 00:00:00 | |
| WB7NNF | 2026-09-05 06:45:36 | 48.25482 | -117.38857 | 343° | 24km/h | 22069m | 4.9m/s | -55.3°C | 0% | 0hPa | 0V | 00:00:00 | 00:00:00 | 00:00:00 | |
| WB7NNF | 2026-09-05 06:45:16 | 48.25402 | -117.38634 | 272° | 29km/h | 21957m | 5.5m/s | -55.7°C | 0% | 0hPa | 0V | 00:00:00 | 00:00:00 | 00:00:00 | |
| WB7NNF | 2026-09-05 06:44:55 | 48.25354 | -117.38387 | 280° | 40km/h | 21851m | 6.5m/s | -55.7°C | 0% | 0hPa | 0V | 00:00:00 | 00:00:00 | 00:00:00 | |
| WB7NNF | 2026-09-05 06:44:35 | 48.25327 | -117.38100 | 284° | 58km/h | 21739m | 3.5m/s | -55.6°C | 0% | 0hPa | 0V | 00:00:00 | 00:00:00 | 00:00:00 | |
| WB7NNF | 2026-09-05 06:44:14 | 48.25344 | -117.37864 | 268° | 37km/h | 21631m | 4.9m/s | -55.6°C | 0% | 0hPa | 0V | 00:00:00 | 00:00:00 | 00:00:00 | |
| WB7NNF | 2026-09-05 06:43:50 | 48.25408 | -117.37706 | 192° | 5km/h | 21499m | 5.8m/s | -56.1°C | 0% | 0hPa | 0V | 00:00:00 | 00:00:00 | 00:00:00 | |
| WB7NNF | 2026-09-05 06:43:28 | 48.25464 | -117.37710 | 166° | 15km/h | 21386m | 4.7m/s | -56.4°C | 0% | 0hPa | 0V | 00:00:00 | 00:00:00 | 00:00:00 | |
| WB7NNF | 2026-09-05 06:43:07 | 48.25496 | -117.37777 | 219° | 11km/h | 21282m | 4.2m/s | -55.8°C | 0% | 0hPa | 0V | 00:00:00 | 00:00:00 | 00:00:00 | |
| WB7NNF | 2026-09-05 06:42:47 | 48.25512 | -117.37853 | 181° | 18km/h | 21177m | 2.6m/s | -55.3°C | 0% | 0hPa | 0V | 00:00:00 | 00:00:00 | 00:00:00 | |
| WB7NNF | 2026-09-05 06:42:24 | 48.25470 | -117.37953 | 83° | 11km/h | 21058m | 6.4m/s | -54.4°C | 0% | 0hPa | 0V | 00:00:00 | 00:00:00 | 00:00:00 | |
| WB7NNF | 2026-09-05 06:42:04 | 48.25424 | -117.38026 | 116° | 15km/h | 20936m | 5.7m/s | -53.4°C | 0% | 0hPa | 0V | 00:00:00 | 00:00:00 | 00:00:00 | |
| WB7NNF | 2026-09-05 06:41:43 | 48.25359 | -117.38091 | 10° | 16km/h | 20827m | 4.0m/s | -53.2°C | 0% | 0hPa | 0V | 00:00:00 | 00:00:00 | 00:00:00 | |
| WB7NNF | 2026-09-05 06:41:23 | 48.25276 | -117.38087 | 343° | 16km/h | 20726m | 5.2m/s | -53.2°C | 0% | 0hPa | 0V | 00:00:00 | 00:00:00 | 00:00:00 | |
| WB7NNF | 2026-09-05 06:41:02 | 48.25154 | -117.38025 | 331° | 27km/h | 20621m | 5.6m/s | -53.2°C | 0% | 0hPa | 0V | 00:00:00 | 00:00:00 | 00:00:00 | |
| WB7NNF | 2026-09-05 06:40:41 | 48.25021 | -117.37906 | 332° | 38km/h | 20526m | 4.1m/s | -53.1°C | 0% | 0hPa | 0V | 00:00:00 | 00:00:00 | 00:00:00 | |
| WB7NNF | 2026-09-05 06:40:21 | 48.24900 | -117.37815 | 356° | 15km/h | 20426m | 2.8m/s | -54.9°C | 0% | 0hPa | 0V | 00:00:00 | 00:00:00 | 00:00:00 | |
| WB7NNF | 2026-09-05 06:40:00 | 48.24796 | -117.37737 | 339° | 27km/h | 20333m | 3.9m/s | -55.2°C | 0% | 0hPa | 0V | 00:00:00 | 00:00:00 | 00:00:00 | |
| WB7NNF | 2026-09-05 06:39:40 | 48.24667 | -117.37577 | 325° | 44km/h | 20234m | 3.2m/s | -54.8°C | 0% | 0hPa | 0V | 00:00:00 | 00:00:00 | 00:00:00 | |
| WB7NNF | 2026-09-05 06:39:19 | 48.24551 | -117.37380 | 308° | 24km/h | 20140m | 6.4m/s | -54.2°C | 0% | 0hPa | 0V | 00:00:00 | 00:00:00 | 00:00:00 | |
| WB7NNF | 2026-09-05 06:38:59 | 48.24461 | -117.37151 | 309° | 13km/h | 20038m | 5.7m/s | -53.6°C | 0% | 0hPa | 0V | 00:00:00 | 00:00:00 | 00:00:00 | |
| WB7NNF | 2026-09-05 06:38:38 | 48.24395 | -117.36971 | 305° | 11km/h | 19942m | 4.1m/s | -54.2°C | 0% | 0hPa | 0V | 00:00:00 | 00:00:00 | 00:00:00 | |
| WB7NNF | 2026-09-05 06:38:18 | 48.24334 | -117.36835 | 318° | 20km/h | 19838m | 3.5m/s | -54.3°C | 0% | 0hPa | 0V | 00:00:00 | 00:00:00 | 00:00:00 | |
| WB7NNF | 2026-09-05 06:37:57 | 48.24272 | -117.36809 | 343° | 18km/h | 19740m | 5.0m/s | -54.3°C | 0% | 0hPa | 0V | 00:00:00 | 00:00:00 | 00:00:00 | |
| WB7NNF | 2026-09-05 06:37:37 | 48.24201 | -117.36768 | 302° | 15km/h | 19636m | 5.8m/s | -54.4°C | 0% | 0hPa | 0V | 00:00:00 | 00:00:00 | 00:00:00 | |
| WB7NNF | 2026-09-05 06:37:15 | 48.24117 | -117.36697 | 354° | 18km/h | 19531m | 6.3m/s | -54.5°C | 0% | 0hPa | 0V | 00:00:00 | 00:00:00 | 00:00:00 | |
| WB7NNF | 2026-09-05 06:36:55 | 48.24053 | -117.36631 | 0° | 0km/h | 19434m | 6.8m/s | -54.1°C | 0% | 0hPa | 0V | 00:00:00 | 00:00:00 | 00:00:00 | |
| WB7NNF | 2026-09-05 06:36:35 | 48.24037 | -117.36568 | 334° | 7km/h | 19330m | 5.9m/s | -53.5°C | 0% | 0hPa | 0V | 00:00:00 | 00:00:00 | 00:00:00 | |
| WB7NNF | 2026-09-05 06:36:14 | 48.23996 | -117.36564 | 79° | 2km/h | 19225m | 5.2m/s | -53.5°C | 0% | 0hPa | 0V | 00:00:00 | 00:00:00 | 00:00:00 | |
| WB7NNF | 2026-09-05 06:35:54 | 48.23965 | -117.36593 | 328° | 11km/h | 19123m | 5.7m/s | -53.1°C | 0% | 0hPa | 0V | 00:00:00 | 00:00:00 | 00:00:00 | |
| WB7NNF | 2026-09-05 06:35:33 | 48.23925 | -117.36593 | 356° | 18km/h | 19026m | 5.2m/s | -53.0°C | 0% | 0hPa | 0V | 00:00:00 | 00:00:00 | 00:00:00 | |
| WB7NNF | 2026-09-05 06:35:13 | 48.23897 | -117.36648 | 80° | 5km/h | 18922m | 5.5m/s | -53.2°C | 0% | 0hPa | 0V | 00:00:00 | 00:00:00 | 00:00:00 | |
| WB7NNF | 2026-09-05 06:34:52 | 48.23863 | -117.36746 | 63° | 9km/h | 18827m | 5.2m/s | -53.0°C | 0% | 0hPa | 0V | 00:00:00 | 00:00:00 | 00:00:00 | |
| WB7NNF | 2026-09-05 06:34:32 | 48.23810 | -117.36848 | 51° | 33km/h | 18724m | 4.6m/s | -53.7°C | 0% | 0hPa | 0V | 00:00:00 | 00:00:00 | 00:00:00 | |
| WB7NNF | 2026-09-05 06:34:11 | 48.23732 | -117.36932 | 39° | 20km/h | 18626m | 5.4m/s | -53.7°C | 0% | 0hPa | 0V | 00:00:00 | 00:00:00 | 00:00:00 | |
| WB7NNF | 2026-09-05 06:33:51 | 48.23636 | -117.36993 | 359° | 24km/h | 18526m | 4.3m/s | -53.0°C | 0% | 0hPa | 0V | 00:00:00 | 00:00:00 | 00:00:00 | |
| WB7NNF | 2026-09-05 06:33:28 | 48.23568 | -117.37114 | 72° | 20km/h | 18417m | 4.7m/s | -52.2°C | 0% | 0hPa | 0V | 00:00:00 | 00:00:00 | 00:00:00 | |
| WB7NNF | 2026-09-05 06:33:08 | 48.23482 | -117.37214 | 51° | 27km/h | 18320m | 3.8m/s | -51.5°C | 0% | 0hPa | 0V | 00:00:00 | 00:00:00 | 00:00:00 | |
| WB7NNF | 2026-09-05 06:32:47 | 48.23376 | -117.37331 | 33° | 31km/h | 18221m | 3.7m/s | -51.6°C | 0% | 0hPa | 0V | 00:00:00 | 00:00:00 | 00:00:00 | |
| WB7NNF | 2026-09-05 06:32:27 | 48.23213 | -117.37443 | 26° | 31km/h | 18121m | 6.1m/s | -51.3°C | 0% | 0hPa | 0V | 00:00:00 | 00:00:00 | 00:00:00 | |
| WB7NNF | 2026-09-05 06:32:06 | 48.23035 | -117.37519 | 17° | 33km/h | 18026m | 5.0m/s | -51.7°C | 0% | 0hPa | 0V | 00:00:00 | 00:00:00 | 00:00:00 | |
| WB7NNF | 2026-09-05 06:31:46 | 48.22778 | -117.37608 | 8° | 71km/h | 17929m | 3.7m/s | -52.3°C | 0% | 0hPa | 0V | 00:00:00 | 00:00:00 | 00:00:00 | |
| WB7NNF | 2026-09-05 06:31:25 | 48.22473 | -117.37670 | 3° | 60km/h | 17842m | 5.6m/s | -52.1°C | 0% | 0hPa | 0V | 00:00:00 | 00:00:00 | 00:00:00 | |
| WB7NNF | 2026-09-05 06:31:05 | 48.22129 | -117.37694 | 361° | 53km/h | 17750m | 4.7m/s | -51.8°C | 0% | 0hPa | 0V | 00:00:00 | 00:00:00 | 00:00:00 | |
| WB7NNF | 2026-09-05 06:30:44 | 48.21811 | -117.37671 | 1° | 51km/h | 17661m | 4.4m/s | -51.8°C | 0% | 0hPa | 0V | 00:00:00 | 00:00:00 | 00:00:00 | |
| WB7NNF | 2026-09-05 06:30:24 | 48.21514 | -117.37611 | 356° | 47km/h | 17564m | 4.8m/s | -52.3°C | 0% | 0hPa | 0V | 00:00:00 | 00:00:00 | 00:00:00 | |
| WB7NNF | 2026-09-05 06:30:03 | 48.21264 | -117.37562 | 5° | 46km/h | 17472m | 4.9m/s | -52.4°C | 0% | 0hPa | 0V | 00:00:00 | 00:00:00 | 00:00:00 | |
| WB7NNF | 2026-09-05 06:29:43 | 48.21020 | -117.37515 | 349° | 37km/h | 17377m | 4.1m/s | -52.2°C | 0% | 0hPa | 0V | 00:00:00 | 00:00:00 | 00:00:00 | |
| WB7NNF | 2026-09-05 06:29:22 | 48.20814 | -117.37492 | 3° | 42km/h | 17282m | 5.0m/s | -52.1°C | 0% | 0hPa | 0V | 00:00:00 | 00:00:00 | 00:00:00 | |
| WB7NNF | 2026-09-05 06:29:01 | 48.20594 | -117.37498 | 360° | 38km/h | 17189m | 4.2m/s | -51.7°C | 0% | 0hPa | 0V | 00:00:00 | 00:00:00 | 00:00:00 | |
| WB7NNF | 2026-09-05 06:28:41 | 48.20362 | -117.37477 | 2° | 53km/h | 17093m | 4.3m/s | -52.0°C | 0% | 0hPa | 0V | 00:00:00 | 00:00:00 | 00:00:00 | |
| WB7NNF | 2026-09-05 06:28:20 | 48.20134 | -117.37394 | 339° | 53km/h | 17002m | 4.4m/s | -51.8°C | 0% | 0hPa | 0V | 00:00:00 | 00:00:00 | 00:00:00 | |
| WB7NNF | 2026-09-05 06:28:00 | 48.19904 | -117.37253 | 328° | 42km/h | 16904m | 3.3m/s | -51.2°C | 0% | 0hPa | 0V | 00:00:00 | 00:00:00 | 00:00:00 | |
| WB7NNF | 2026-09-05 06:27:39 | 48.19697 | -117.37111 | 351° | 47km/h | 16816m | 4.5m/s | -50.9°C | 0% | 0hPa | 0V | 00:00:00 | 00:00:00 | 00:00:00 | |
| WB7NNF | 2026-09-05 06:27:19 | 48.19516 | -117.36982 | 338° | 40km/h | 16716m | 3.8m/s | -51.0°C | 0% | 0hPa | 0V | 00:00:00 | 00:00:00 | 00:00:00 | |
| WB7NNF | 2026-09-05 06:26:58 | 48.19377 | -117.36912 | 7° | 35km/h | 16628m | 4.5m/s | -50.7°C | 0% | 0hPa | 0V | 00:00:00 | 00:00:00 | 00:00:00 | |
| WB7NNF | 2026-09-05 06:26:38 | 48.19251 | -117.36907 | 353° | 24km/h | 16537m | 5.0m/s | -50.0°C | 0% | 0hPa | 0V | 00:00:00 | 00:00:00 | 00:00:00 | |
| WB7NNF | 2026-09-05 06:26:17 | 48.19128 | -117.36945 | 26° | 27km/h | 16449m | 5.3m/s | -50.2°C | 0% | 0hPa | 0V | 00:00:00 | 00:00:00 | 00:00:00 | |
| WB7NNF | 2026-09-05 06:25:57 | 48.18974 | -117.36995 | 19° | 38km/h | 16355m | 3.3m/s | -50.8°C | 0% | 0hPa | 0V | 00:00:00 | 00:00:00 | 00:00:00 | |
| WB7NNF | 2026-09-05 06:25:36 | 48.18773 | -117.37050 | 7° | 53km/h | 16266m | 3.3m/s | -50.5°C | 0% | 0hPa | 0V | 00:00:00 | 00:00:00 | 00:00:00 | |
| WB7NNF | 2026-09-05 06:25:16 | 48.18521 | -117.37090 | 7° | 47km/h | 16173m | 5.3m/s | -50.6°C | 0% | 0hPa | 0V | 00:00:00 | 00:00:00 | 00:00:00 | |
| WB7NNF | 2026-09-05 06:24:55 | 48.18275 | -117.37084 | 3° | 49km/h | 16084m | 3.2m/s | -50.3°C | 0% | 0hPa | 0V | 00:00:00 | 00:00:00 | 00:00:00 | |
| WB7NNF | 2026-09-05 06:24:35 | 48.18024 | -117.37032 | 2° | 44km/h | 15987m | 5.7m/s | -51.5°C | 0% | 0hPa | 0V | 00:00:00 | 00:00:00 | 00:00:00 | |
| WB7NNF | 2026-09-05 06:24:14 | 48.17784 | -117.37032 | 19° | 46km/h | 15886m | 5.1m/s | -51.4°C | 0% | 0hPa | 0V | 00:00:00 | 00:00:00 | 00:00:00 | |
| WB7NNF | 2026-09-05 06:23:33 | 48.17234 | -117.37253 | 11° | 71km/h | 15688m | 5.6m/s | -52.0°C | 0% | 0hPa | 0V | 00:00:00 | 00:00:00 | 00:00:00 | |
| WB7NNF | 2026-09-05 06:23:12 | 48.16917 | -117.37341 | 356° | 57km/h | 15593m | 4.3m/s | -51.5°C | 0% | 0hPa | 0V | 00:00:00 | 00:00:00 | 00:00:00 | |
| WB7NNF | 2026-09-05 06:22:52 | 48.16557 | -117.37403 | 10° | 68km/h | 15496m | 4.4m/s | -51.2°C | 0% | 0hPa | 0V | 00:00:00 | 00:00:00 | 00:00:00 | |
| WB7NNF | 2026-09-05 06:22:31 | 48.16259 | -117.37471 | 5° | 64km/h | 15401m | 5.2m/s | -51.3°C | 0% | 0hPa | 0V | 00:00:00 | 00:00:00 | 00:00:00 | |
| WB7NNF | 2026-09-05 06:22:11 | 48.15954 | -117.37558 | 13° | 57km/h | 15309m | 4.4m/s | -51.6°C | 0% | 0hPa | 0V | 00:00:00 | 00:00:00 | 00:00:00 | |
| WB7NNF | 2026-09-05 06:21:50 | 48.15670 | -117.37640 | 24° | 55km/h | 15220m | 5.6m/s | -51.5°C | 0% | 0hPa | 0V | 00:00:00 | 00:00:00 | 00:00:00 | |
| WB7NNF | 2026-09-05 06:21:09 | 48.15159 | -117.37849 | 20° | 49km/h | 15039m | 4.6m/s | -51.7°C | 0% | 0hPa | 0V | 00:00:00 | 00:00:00 | 00:00:00 | |
| WB7NNF | 2026-09-05 06:20:49 | 48.14908 | -117.37915 | 360° | 44km/h | 14948m | 3.6m/s | -51.3°C | 0% | 0hPa | 0V | 00:00:00 | 00:00:00 | 00:00:00 | |
| WB7NNF | 2026-09-05 06:20:28 | 48.14662 | -117.37975 | 17° | 47km/h | 14862m | 4.3m/s | -51.1°C | 0% | 0hPa | 0V | 00:00:00 | 00:00:00 | 00:00:00 | |
| WB7NNF | 2026-09-05 06:20:08 | 48.14393 | -117.38098 | 28° | 62km/h | 14770m | 4.1m/s | -51.0°C | 0% | 0hPa | 0V | 00:00:00 | 00:00:00 | 00:00:00 | |
| WB7NNF | 2026-09-05 06:19:47 | 48.14102 | -117.38217 | 25° | 55km/h | 14678m | 4.8m/s | -50.7°C | 0% | 0hPa | 0V | 00:00:00 | 00:00:00 | 00:00:00 | |
| WB7NNF | 2026-09-05 06:19:27 | 48.13763 | -117.38372 | 21° | 69km/h | 14579m | 5.3m/s | -50.5°C | 0% | 0hPa | 0V | 00:00:00 | 00:00:00 | 00:00:00 | |
| WB7NNF | 2026-09-05 06:19:06 | 48.13415 | -117.38508 | 19° | 75km/h | 14486m | 5.2m/s | -50.0°C | 0% | 0hPa | 0V | 00:00:00 | 00:00:00 | 00:00:00 | |
| WB7NNF | 2026-09-05 06:18:45 | 48.13084 | -117.38633 | 16° | 60km/h | 14400m | 3.8m/s | -49.4°C | 0% | 0hPa | 0V | 00:00:00 | 00:00:00 | 00:00:00 | |
| WB7NNF | 2026-09-05 06:18:25 | 48.12766 | -117.38730 | 3° | 66km/h | 14305m | 4.0m/s | -48.7°C | 0% | 0hPa | 0V | 00:00:00 | 00:00:00 | 00:00:00 | |
| WB7NNF | 2026-09-05 06:18:04 | 48.12479 | -117.38797 | 9° | 58km/h | 14221m | 3.9m/s | -48.5°C | 0% | 0hPa | 0V | 00:00:00 | 00:00:00 | 00:00:00 | |
| WB7NNF | 2026-09-05 06:17:44 | 48.12182 | -117.38850 | 11° | 64km/h | 14127m | 3.5m/s | -49.0°C | 0% | 0hPa | 0V | 00:00:00 | 00:00:00 | 00:00:00 | |
| WB7NNF | 2026-09-05 06:17:23 | 48.11891 | -117.38927 | 23° | 57km/h | 14038m | 5.6m/s | -48.5°C | 0% | 0hPa | 0V | 00:00:00 | 00:00:00 | 00:00:00 | |
| WB7NNF | 2026-09-05 06:17:03 | 48.11575 | -117.39009 | 20° | 64km/h | 13950m | 3.8m/s | -48.3°C | 0% | 0hPa | 0V | 00:00:00 | 00:00:00 | 00:00:00 | |
| WB7NNF | 2026-09-05 06:16:42 | 48.11272 | -117.39049 | 3° | 66km/h | 13860m | 5.4m/s | -47.9°C | 0% | 0hPa | 0V | 00:00:00 | 00:00:00 | 00:00:00 | |
| WB7NNF | 2026-09-05 06:16:22 | 48.10943 | -117.39096 | 14° | 58km/h | 13767m | 5.1m/s | -47.4°C | 0% | 0hPa | 0V | 00:00:00 | 00:00:00 | 00:00:00 | |
| WB7NNF | 2026-09-05 06:16:01 | 48.10636 | -117.39186 | 11° | 60km/h | 13676m | 5.3m/s | -47.0°C | 0% | 0hPa | 0V | 00:00:00 | 00:00:00 | 00:00:00 | |
| WB7NNF | 2026-09-05 06:15:41 | 48.10329 | -117.39296 | 22° | 58km/h | 13588m | 4.6m/s | -47.1°C | 0% | 0hPa | 0V | 00:00:00 | 00:00:00 | 00:00:00 | |
| WB7NNF | 2026-09-05 06:15:20 | 48.10038 | -117.39443 | 24° | 68km/h | 13506m | 3.1m/s | -47.3°C | 0% | 0hPa | 0V | 00:00:00 | 00:00:00 | 00:00:00 | |
| WB7NNF | 2026-09-05 06:15:00 | 48.09733 | -117.39620 | 26° | 73km/h | 13419m | 2.0m/s | -47.3°C | 0% | 0hPa | 0V | 00:00:00 | 00:00:00 | 00:00:00 | |
| WB7NNF | 2026-09-05 06:14:39 | 48.09439 | -117.39867 | 35° | 64km/h | 13330m | 4.6m/s | -47.4°C | 0% | 0hPa | 0V | 00:00:00 | 00:00:00 | 00:00:00 | |
| WB7NNF | 2026-09-05 06:14:19 | 48.09107 | -117.40132 | 31° | 69km/h | 13242m | 4.1m/s | -46.9°C | 0% | 0hPa | 0V | 00:00:00 | 00:00:00 | 00:00:00 | |
| WB7NNF | 2026-09-05 06:13:58 | 48.08762 | -117.40382 | 26° | 80km/h | 13159m | 3.2m/s | -46.5°C | 0% | 0hPa | 0V | 00:00:00 | 00:00:00 | 00:00:00 | |
| WB7NNF | 2026-09-05 06:13:38 | 48.08397 | -117.40593 | 19° | 75km/h | 13072m | 2.5m/s | -46.6°C | 0% | 0hPa | 0V | 00:00:00 | 00:00:00 | 00:00:00 | |
| WB7NNF | 2026-09-05 06:13:17 | 48.08021 | -117.40780 | 18° | 84km/h | 12988m | 4.6m/s | -46.4°C | 0% | 0hPa | 0V | 00:00:00 | 00:00:00 | 00:00:00 | |
| WB7NNF | 2026-09-05 06:12:56 | 48.07616 | -117.41009 | 23° | 89km/h | 12905m | 4.7m/s | -46.0°C | 0% | 0hPa | 0V | 00:00:00 | 00:00:00 | 00:00:00 | |
| WB7NNF | 2026-09-05 06:12:36 | 48.07195 | -117.41257 | 18° | 86km/h | 12824m | 4.9m/s | -45.8°C | 0% | 0hPa | 0V | 00:00:00 | 00:00:00 | 00:00:00 | |
| WB7NNF | 2026-09-05 06:12:15 | 48.06789 | -117.41479 | 19° | 78km/h | 12743m | 3.5m/s | -45.2°C | 0% | 0hPa | 0V | 00:00:00 | 00:00:00 | 00:00:00 | |
| WB7NNF | 2026-09-05 06:11:55 | 48.06374 | -117.41662 | 20° | 78km/h | 12657m | 4.0m/s | -45.1°C | 0% | 0hPa | 0V | 00:00:00 | 00:00:00 | 00:00:00 | |
| WB7NNF | 2026-09-05 06:11:34 | 48.05952 | -117.41859 | 20° | 89km/h | 12576m | 5.1m/s | -44.8°C | 0% | 0hPa | 0V | 00:00:00 | 00:00:00 | 00:00:00 | |
| WB7NNF | 2026-09-05 06:11:14 | 48.05474 | -117.42057 | 22° | 88km/h | 12487m | 3.7m/s | -44.5°C | 0% | 0hPa | 0V | 00:00:00 | 00:00:00 | 00:00:00 | |
| WB7NNF | 2026-09-05 06:10:53 | 48.05038 | -117.42263 | 21° | 80km/h | 12403m | 3.9m/s | -44.2°C | 0% | 0hPa | 0V | 00:00:00 | 00:00:00 | 00:00:00 | |
| WB7NNF | 2026-09-05 06:10:33 | 48.04611 | -117.42465 | 19° | 82km/h | 12301m | 6.8m/s | -43.3°C | 0% | 0hPa | 0V | 00:00:00 | 00:00:00 | 00:00:00 | |
| WB7NNF | 2026-09-05 06:10:12 | 48.04221 | -117.42670 | 18° | 73km/h | 12206m | 5.2m/s | -43.1°C | 0% | 0hPa | 0V | 00:00:00 | 00:00:00 | 00:00:00 | |
| WB7NNF | 2026-09-05 06:09:52 | 48.03799 | -117.42880 | 18° | 89km/h | 12111m | 4.9m/s | -42.6°C | 0% | 0hPa | 0V | 00:00:00 | 00:00:00 | 00:00:00 | |
| WB7NNF | 2026-09-05 06:09:32 | 48.03369 | -117.43060 | 19° | 89km/h | 12023m | 4.6m/s | -42.5°C | 0% | 0hPa | 0V | 00:00:00 | 00:00:00 | 00:00:00 | |
| WB7NNF | 2026-09-05 06:09:11 | 48.02906 | -117.43243 | 13° | 95km/h | 11939m | 3.3m/s | -42.4°C | 0% | 0hPa | 0V | 00:00:00 | 00:00:00 | 00:00:00 | |
| WB7NNF | 2026-09-05 06:08:50 | 48.02463 | -117.43420 | 18° | 82km/h | 11851m | 4.8m/s | -41.9°C | 0% | 0hPa | 0V | 00:00:00 | 00:00:00 | 00:00:00 | |
| WB7NNF | 2026-09-05 06:08:29 | 48.02021 | -117.43630 | 23° | 82km/h | 11761m | 4.6m/s | -41.7°C | 0% | 0hPa | 0V | 00:00:00 | 00:00:00 | 00:00:00 | |
| WB7NNF | 2026-09-05 06:08:07 | 48.01643 | -117.43845 | 18° | 78km/h | 11680m | 3.4m/s | -41.3°C | 0% | 0hPa | 0V | 00:00:00 | 00:00:00 | 00:00:00 | |
| WB7NNF | 2026-09-05 06:07:45 | 48.01217 | -117.44136 | 25° | 84km/h | 11586m | 3.7m/s | -41.3°C | 0% | 0hPa | 0V | 00:00:00 | 00:00:00 | 00:00:00 | |
| WB7NNF | 2026-09-05 06:07:24 | 48.00793 | -117.44411 | 23° | 80km/h | 11503m | 3.0m/s | -41.2°C | 0% | 0hPa | 0V | 00:00:00 | 00:00:00 | 00:00:00 | |
| WB7NNF | 2026-09-05 06:07:02 | 48.00336 | -117.44700 | 26° | 89km/h | 11420m | 2.9m/s | -40.8°C | 0% | 0hPa | 0V | 00:00:00 | 00:00:00 | 00:00:00 | |
| WB7NNF | 2026-09-05 06:06:41 | 47.99887 | -117.44958 | 22° | 91km/h | 11346m | 2.8m/s | -40.8°C | 0% | 0hPa | 0V | 00:00:00 | 00:00:00 | 00:00:00 | |
| WB7NNF | 2026-09-05 06:06:21 | 47.99373 | -117.45222 | 22° | 113km/h | 11276m | 3.8m/s | -41.0°C | 0% | 0hPa | 0V | 00:00:00 | 00:00:00 | 00:00:00 | |
| WB7NNF | 2026-09-05 06:06:00 | 47.98873 | -117.45462 | 17° | 104km/h | 11208m | 2.5m/s | -41.1°C | 0% | 0hPa | 0V | 00:00:00 | 00:00:00 | 00:00:00 | |
| WB7NNF | 2026-09-05 06:05:40 | 47.98339 | -117.45673 | 15° | 108km/h | 11132m | 4.4m/s | -41.6°C | 0% | 0hPa | 0V | 00:00:00 | 00:00:00 | 00:00:00 | |
| WB7NNF | 2026-09-05 06:05:19 | 47.97812 | -117.45859 | 13° | 110km/h | 11057m | 4.2m/s | -41.8°C | 0% | 0hPa | 0V | 00:00:00 | 00:00:00 | 00:00:00 | |
| WB7NNF | 2026-09-05 06:04:59 | 47.97251 | -117.45988 | 9° | 104km/h | 10976m | 4.2m/s | -42.0°C | 0% | 0hPa | 0V | 00:00:00 | 00:00:00 | 00:00:00 | |
| WB7NNF | 2026-09-05 06:04:38 | 47.96707 | -117.46053 | 360° | 100km/h | 10895m | 6.2m/s | -42.5°C | 0% | 0hPa | 0V | 00:00:00 | 00:00:00 | 00:00:00 | |
| WB7NNF | 2026-09-05 06:04:18 | 47.96212 | -117.46046 | 3° | 86km/h | 10807m | 4.5m/s | -42.5°C | 0% | 0hPa | 0V | 00:00:00 | 00:00:00 | 00:00:00 | |
| WB7NNF | 2026-09-05 06:03:58 | 47.95792 | -117.46006 | 354° | 62km/h | 10728m | 2.8m/s | -43.1°C | 0% | 0hPa | 0V | 00:00:00 | 00:00:00 | 00:00:00 | |
| WB7NNF | 2026-09-05 06:03:37 | 47.95430 | -117.45989 | 357° | 71km/h | 10635m | 3.4m/s | -43.5°C | 0% | 0hPa | 0V | 00:00:00 | 00:00:00 | 00:00:00 | |
| WB7NNF | 2026-09-05 06:03:16 | 47.95063 | -117.46044 | 9° | 62km/h | 10542m | 4.3m/s | -43.0°C | 0% | 0hPa | 0V | 00:00:00 | 00:00:00 | 00:00:00 | |
| WB7NNF | 2026-09-05 06:02:55 | 47.94744 | -117.46140 | 4° | 58km/h | 10456m | 5.1m/s | -42.6°C | 0% | 0hPa | 0V | 00:00:00 | 00:00:00 | 00:00:00 | |
| WB7NNF | 2026-09-05 06:02:35 | 47.94403 | -117.46291 | 23° | 58km/h | 10356m | 3.8m/s | -42.3°C | 0% | 0hPa | 0V | 00:00:00 | 00:00:00 | 00:00:00 | |
| WB7NNF | 2026-09-05 06:02:14 | 47.94047 | -117.46503 | 16° | 84km/h | 10268m | 2.5m/s | -42.4°C | 0% | 0hPa | 0V | 00:00:00 | 00:00:00 | 00:00:00 | |
| WB7NNF | 2026-09-05 06:01:54 | 47.93612 | -117.46815 | 30° | 102km/h | 10175m | 5.6m/s | -42.1°C | 0% | 0hPa | 0V | 00:00:00 | 00:00:00 | 00:00:00 | |
| WB7NNF | 2026-09-05 06:01:33 | 47.93169 | -117.47162 | 31° | 106km/h | 10094m | 4.1m/s | -42.1°C | 0% | 0hPa | 0V | 00:00:00 | 00:00:00 | 00:00:00 | |
| WB7NNF | 2026-09-05 06:01:13 | 47.92682 | -117.47570 | 31° | 106km/h | 10009m | 4.9m/s | -41.6°C | 0% | 0hPa | 0V | 00:00:00 | 00:00:00 | 00:00:00 | |
| WB7NNF | 2026-09-05 06:00:52 | 47.92193 | -117.47958 | 28° | 110km/h | 9930m | 4.6m/s | -41.2°C | 0% | 0hPa | 0V | 00:00:00 | 00:00:00 | 00:00:00 | |
| WB7NNF | 2026-09-05 06:00:32 | 47.91682 | -117.48369 | 34° | 119km/h | 9847m | 3.9m/s | -41.1°C | 0% | 0hPa | 0V | 00:00:00 | 00:00:00 | 00:00:00 | |
| WB7NNF | 2026-09-05 06:00:12 | 47.91164 | -117.48781 | 29° | 126km/h | 9765m | 3.3m/s | -41.0°C | 0% | 0hPa | 0V | 00:00:00 | 00:00:00 | 00:00:00 | |
| WB7NNF | 2026-09-05 05:59:51 | 47.90586 | -117.49213 | 28° | 113km/h | 9681m | 4.0m/s | -40.8°C | 0% | 0hPa | 0V | 00:00:00 | 00:00:00 | 00:00:00 | |
| WB7NNF | 2026-09-05 05:59:30 | 47.90040 | -117.49608 | 30° | 115km/h | 9605m | 2.5m/s | -40.8°C | 0% | 0hPa | 0V | 00:00:00 | 00:00:00 | 00:00:00 | |
| WB7NNF | 2026-09-05 05:59:10 | 47.89468 | -117.49950 | 19° | 113km/h | 9527m | 4.1m/s | -41.3°C | 0% | 0hPa | 0V | 00:00:00 | 00:00:00 | 00:00:00 | |
| WB7NNF | 2026-09-05 05:58:49 | 47.88919 | -117.50228 | 19° | 113km/h | 9453m | 3.7m/s | -41.4°C | 0% | 0hPa | 0V | 00:00:00 | 00:00:00 | 00:00:00 | |
| WB7NNF | 2026-09-05 05:58:29 | 47.88334 | -117.50537 | 24° | 115km/h | 9377m | 3.0m/s | -41.5°C | 0% | 0hPa | 0V | 00:00:00 | 00:00:00 | 00:00:00 | |
| WB7NNF | 2026-09-05 05:58:08 | 47.87782 | -117.50828 | 24° | 106km/h | 9302m | 2.9m/s | -41.4°C | 0% | 0hPa | 0V | 00:00:00 | 00:00:00 | 00:00:00 | |
| WB7NNF | 2026-09-05 05:57:47 | 47.87251 | -117.51121 | 23° | 110km/h | 9228m | 3.5m/s | -41.6°C | 0% | 0hPa | 0V | 00:00:00 | 00:00:00 | 00:00:00 | |
| WB7NNF | 2026-09-05 05:57:27 | 47.86694 | -117.51406 | 19° | 110km/h | 9151m | 3.3m/s | -41.3°C | 0% | 0hPa | 0V | 00:00:00 | 00:00:00 | 00:00:00 | |
| WB7NNF | 2026-09-05 05:57:06 | 47.86168 | -117.51686 | 26° | 104km/h | 9079m | 3.2m/s | -41.2°C | 0% | 0hPa | 0V | 00:00:00 | 00:00:00 | 00:00:00 | |
| WB7NNF | 2026-09-05 05:56:46 | 47.85635 | -117.51993 | 21° | 113km/h | 8998m | 2.8m/s | -40.9°C | 0% | 0hPa | 0V | 00:00:00 | 00:00:00 | 00:00:00 | |
| WB7NNF | 2026-09-05 05:56:25 | 47.85118 | -117.52296 | 26° | 99km/h | 8918m | 4.4m/s | -41.1°C | 0% | 0hPa | 0V | 00:00:00 | 00:00:00 | 00:00:00 | |
| WB7NNF | 2026-09-05 05:56:05 | 47.84598 | -117.52596 | 24° | 100km/h | 8834m | 5.3m/s | -40.6°C | 0% | 0hPa | 0V | 00:00:00 | 00:00:00 | 00:00:00 | |
| WB7NNF | 2026-09-05 05:55:44 | 47.84104 | -117.52866 | 28° | 89km/h | 8744m | 6.2m/s | -40.1°C | 0% | 0hPa | 0V | 00:00:00 | 00:00:00 | 00:00:00 | |
| WB7NNF | 2026-09-05 05:55:24 | 47.83652 | -117.53174 | 29° | 102km/h | 8653m | 3.4m/s | -39.6°C | 0% | 0hPa | 0V | 00:00:00 | 00:00:00 | 00:00:00 | |
| WB7NNF | 2026-09-05 05:55:03 | 47.83201 | -117.53500 | 25° | 104km/h | 8572m | 3.2m/s | -39.3°C | 0% | 0hPa | 0V | 00:00:00 | 00:00:00 | 00:00:00 | |
| WB7NNF | 2026-09-05 05:54:43 | 47.82695 | -117.53816 | 27° | 102km/h | 8486m | 4.8m/s | -38.9°C | 0% | 0hPa | 0V | 00:00:00 | 00:00:00 | 00:00:00 | |
| WB7NNF | 2026-09-05 05:54:22 | 47.82196 | -117.54152 | 27° | 102km/h | 8409m | 4.3m/s | -38.7°C | 0% | 0hPa | 0V | 00:00:00 | 00:00:00 | 00:00:00 | |
| WB7NNF | 2026-09-05 05:53:41 | 47.81165 | -117.54819 | 22° | 108km/h | 8252m | 5.0m/s | -37.9°C | 0% | 0hPa | 0V | 00:00:00 | 00:00:00 | 00:00:00 | |
| WB7NNF | 2026-09-05 05:53:21 | 47.80643 | -117.55125 | 21° | 102km/h | 8168m | 5.8m/s | -37.4°C | 0% | 0hPa | 0V | 00:00:00 | 00:00:00 | 00:00:00 | |
| WB7NNF | 2026-09-05 05:53:00 | 47.80134 | -117.55427 | 20° | 100km/h | 8086m | 5.2m/s | -37.1°C | 0% | 0hPa | 0V | 00:00:00 | 00:00:00 | 00:00:00 | |
| WB7NNF | 2026-09-05 05:52:38 | 47.79621 | -117.55708 | 25° | 100km/h | 8006m | 4.7m/s | -37.7°C | 0% | 0hPa | 0V | 00:00:00 | 00:00:00 | 00:00:00 | |
| WB7NNF | 2026-09-05 05:52:17 | 47.79181 | -117.56022 | 30° | 95km/h | 7939m | 3.5m/s | -38.1°C | 0% | 0hPa | 0V | 00:00:00 | 00:00:00 | 00:00:00 | |
| WB7NNF | 2026-09-05 05:51:57 | 47.78695 | -117.56393 | 20° | 95km/h | 7863m | 3.8m/s | -37.6°C | 0% | 0hPa | 0V | 00:00:00 | 00:00:00 | 00:00:00 | |
| WB7NNF | 2026-09-05 05:51:36 | 47.78282 | -117.56656 | 26° | 93km/h | 7795m | 4.0m/s | -37.1°C | 0% | 0hPa | 0V | 00:00:00 | 00:00:00 | 00:00:00 | |
| WB7NNF | 2026-09-05 05:51:15 | 47.77860 | -117.56898 | 20° | 86km/h | 7723m | 4.5m/s | -37.1°C | 0% | 0hPa | 0V | 00:00:00 | 00:00:00 | 00:00:00 | |
| WB7NNF | 2026-09-05 05:50:55 | 47.77414 | -117.57153 | 23° | 88km/h | 7650m | 3.8m/s | -37.1°C | 0% | 0hPa | 0V | 00:00:00 | 00:00:00 | 00:00:00 | |
| WB7NNF | 2026-09-05 05:50:34 | 47.76988 | -117.57423 | 26° | 91km/h | 7580m | 2.8m/s | -36.8°C | 0% | 0hPa | 0V | 00:00:00 | 00:00:00 | 00:00:00 | |
| WB7NNF | 2026-09-05 05:50:14 | 47.76531 | -117.57638 | 9° | 80km/h | 7499m | 3.2m/s | -36.8°C | 0% | 0hPa | 0V | 00:00:00 | 00:00:00 | 00:00:00 | |
| WB7NNF | 2026-09-05 05:49:33 | 47.75864 | -117.58064 | 31° | 62km/h | 7280m | 6.7m/s | -35.3°C | 0% | 0hPa | 0V | 00:00:00 | 00:00:00 | 00:00:00 | |
| WB7NNF | 2026-09-05 05:49:12 | 47.75593 | -117.58215 | 12° | 69km/h | 7177m | 4.3m/s | -34.6°C | 0% | 0hPa | 0V | 00:00:00 | 00:00:00 | 00:00:00 | |
| WB7NNF | 2026-09-05 05:48:50 | 47.75281 | -117.58358 | 17° | 49km/h | 7081m | 4.5m/s | -33.8°C | 0% | 0hPa | 0V | 00:00:00 | 00:00:00 | 00:00:00 | |
| WB7NNF | 2026-09-05 05:48:24 | 47.74979 | -117.58549 | 24° | 64km/h | 6988m | 3.4m/s | -33.0°C | 0% | 0hPa | 0V | 00:00:00 | 00:00:00 | 00:00:00 | |
| WB7NNF | 2026-09-05 05:48:04 | 47.74731 | -117.58711 | 26° | 62km/h | 6908m | 4.3m/s | -32.3°C | 0% | 0hPa | 0V | 00:00:00 | 00:00:00 | 00:00:00 | |
| WB7NNF | 2026-09-05 05:47:43 | 47.74473 | -117.58867 | 16° | 57km/h | 6830m | 3.6m/s | -31.6°C | 0% | 0hPa | 0V | 00:00:00 | 00:00:00 | 00:00:00 | |
| WB7NNF | 2026-09-05 05:47:22 | 47.74217 | -117.59031 | 20° | 64km/h | 6759m | 4.4m/s | -31.1°C | 0% | 0hPa | 0V | 00:00:00 | 00:00:00 | 00:00:00 | |
| WB7NNF | 2026-09-05 05:46:41 | 47.73674 | -117.59331 | 21° | 62km/h | 6601m | 4.9m/s | -29.8°C | 0% | 0hPa | 0V | 00:00:00 | 00:00:00 | 00:00:00 | |
| WB7NNF | 2026-09-05 05:46:21 | 47.73393 | -117.59489 | 17° | 57km/h | 6520m | 4.3m/s | -29.0°C | 0% | 0hPa | 0V | 00:00:00 | 00:00:00 | 00:00:00 | |
| WB7NNF | 2026-09-05 05:45:56 | 47.73079 | -117.59699 | 36° | 47km/h | 6409m | 5.7m/s | -27.9°C | 0% | 0hPa | 0V | 00:00:00 | 00:00:00 | 00:00:00 | |
| WB7NNF | 2026-09-05 05:45:34 | 47.72801 | -117.59892 | 21° | 51km/h | 6312m | 4.7m/s | -27.1°C | 0% | 0hPa | 0V | 00:00:00 | 00:00:00 | 00:00:00 | |
| WB7NNF | 2026-09-05 05:45:13 | 47.72524 | -117.60088 | 31° | 71km/h | 6229m | 1.0m/s | -26.5°C | 0% | 0hPa | 0V | 00:00:00 | 00:00:00 | 00:00:00 | |
| WB7NNF | 2026-09-05 05:44:49 | 47.72225 | -117.60326 | 37° | 62km/h | 6121m | 4.3m/s | -25.5°C | 0% | 0hPa | 0V | 00:00:00 | 00:00:00 | 00:00:00 | |
| WB7NNF | 2026-09-05 05:44:27 | 47.71967 | -117.60542 | 34° | 42km/h | 6026m | 3.1m/s | -25.0°C | 0% | 0hPa | 0V | 00:00:00 | 00:00:00 | 00:00:00 | |
| WB7NNF | 2026-09-05 05:43:44 | 47.71545 | -117.60860 | 23° | 40km/h | 5853m | 4.2m/s | -23.7°C | 0% | 0hPa | 0V | 00:00:00 | 00:00:00 | 00:00:00 | |
| WB7NNF | 2026-09-05 05:42:59 | 47.71090 | -117.61165 | 22° | 42km/h | 5659m | 4.7m/s | -22.2°C | 0% | 0hPa | 0V | 00:00:00 | 00:00:00 | 00:00:00 |